sensor_id;sensor_type;location;lat;lon;timestamp;temperature;humidity
44047;DHT22;29713;-33.888;151.150;2023-01-16T00:00:10;28.50;99.90
44047;DHT22;29713;-33.888;151.150;2023-01-16T00:02:38;28.50;99.90
44047;DHT22;29713;-33.888;151.150;2023-01-16T00:05:05;28.50;99.90
44047;DHT22;29713;-33.888;151.150;2023-01-16T00:07:32;28.30;99.90
44047;DHT22;29713;-33.888;151.150;2023-01-16T00:10:00;28.30;99.90
44047;DHT22;29713;-33.888;151.150;2023-01-16T00:12:27;28.40;99.90
44047;DHT22;29713;-33.888;151.150;2023-01-16T00:14:54;28.50;99.90
44047;DHT22;29713;-33.888;151.150;2023-01-16T00:17:22;28.50;99.90
44047;DHT22;29713;-33.888;151.150;2023-01-16T00:19:49;28.50;99.90
44047;DHT22;29713;-33.888;151.150;2023-01-16T00:22:17;28.60;99.90
44047;DHT22;29713;-33.888;151.150;2023-01-16T00:24:44;28.70;99.90
44047;DHT22;29713;-33.888;151.150;2023-01-16T00:27:11;28.80;99.90
44047;DHT22;29713;-33.888;151.150;2023-01-16T00:29:39;28.70;99.90
44047;DHT22;29713;-33.888;151.150;2023-01-16T00:32:06;28.60;99.90
44047;DHT22;29713;-33.888;151.150;2023-01-16T00:34:34;28.60;99.90
44047;DHT22;29713;-33.888;151.150;2023-01-16T00:37:01;28.70;99.90
44047;DHT22;29713;-33.888;151.150;2023-01-16T00:39:28;28.80;99.90
44047;DHT22;29713;-33.888;151.150;2023-01-16T00:41:55;28.70;99.90
44047;DHT22;29713;-33.888;151.150;2023-01-16T00:44:23;28.60;99.90
44047;DHT22;29713;-33.888;151.150;2023-01-16T00:46:50;28.60;99.90
44047;DHT22;29713;-33.888;151.150;2023-01-16T00:49:17;28.70;99.90
44047;DHT22;29713;-33.888;151.150;2023-01-16T00:51:45;28.80;99.90
44047;DHT22;29713;-33.888;151.150;2023-01-16T00:54:12;29.10;99.90
44047;DHT22;29713;-33.888;151.150;2023-01-16T00:56:39;29.40;99.90
44047;DHT22;29713;-33.888;151.150;2023-01-16T00:59:07;29.60;99.90
44047;DHT22;29713;-33.888;151.150;2023-01-16T01:01:34;29.60;99.90
44047;DHT22;29713;-33.888;151.150;2023-01-16T01:04:02;29.50;99.90
44047;DHT22;29713;-33.888;151.150;2023-01-16T01:06:30;29.20;99.90
44047;DHT22;29713;-33.888;151.150;2023-01-16T01:08:57;29.00;99.90
44047;DHT22;29713;-33.888;151.150;2023-01-16T01:11:27;28.80;99.90
44047;DHT22;29713;-33.888;151.150;2023-01-16T01:13:55;28.60;99.90
44047;DHT22;29713;-33.888;151.150;2023-01-16T01:16:22;28.60;99.90
44047;DHT22;29713;-33.888;151.150;2023-01-16T01:18:49;28.50;99.90
44047;DHT22;29713;-33.888;151.150;2023-01-16T01:21:17;28.70;99.90
44047;DHT22;29713;-33.888;151.150;2023-01-16T01:23:44;29.00;99.90
44047;DHT22;29713;-33.888;151.150;2023-01-16T01:26:14;29.40;99.90
44047;DHT22;29713;-33.888;151.150;2023-01-16T01:28:42;29.90;99.90
44047;DHT22;29713;-33.888;151.150;2023-01-16T01:31:12;30.30;99.90
44047;DHT22;29713;-33.888;151.150;2023-01-16T01:33:39;30.60;99.90
44047;DHT22;29713;-33.888;151.150;2023-01-16T01:36:07;30.60;99.90
44047;DHT22;29713;-33.888;151.150;2023-01-16T01:38:35;30.50;99.90
44047;DHT22;29713;-33.888;151.150;2023-01-16T01:41:03;30.60;99.90
44047;DHT22;29713;-33.888;151.150;2023-01-16T01:43:53;30.50;99.90
44047;DHT22;29713;-33.888;151.150;2023-01-16T01:46:36;30.50;99.90
44047;DHT22;29713;-33.888;151.150;2023-01-16T01:49:21;30.30;99.90
44047;DHT22;29713;-33.888;151.150;2023-01-16T01:51:52;30.00;99.90
44047;DHT22;29713;-33.888;151.150;2023-01-16T01:54:28;29.90;99.90
44047;DHT22;29713;-33.888;151.150;2023-01-16T01:57:25;29.90;99.90
44047;DHT22;29713;-33.888;151.150;2023-01-16T02:00:19;30.10;99.90
44047;DHT22;29713;-33.888;151.150;2023-01-16T02:02:55;30.30;99.90
44047;DHT22;29713;-33.888;151.150;2023-01-16T02:05:38;30.40;99.90
44047;DHT22;29713;-33.888;151.150;2023-01-16T02:08:16;30.60;99.90
44047;DHT22;29713;-33.888;151.150;2023-01-16T02:11:20;30.50;99.90
44047;DHT22;29713;-33.888;151.150;2023-01-16T02:14:02;30.40;99.90
44047;DHT22;29713;-33.888;151.150;2023-01-16T02:16:31;30.40;99.90
44047;DHT22;29713;-33.888;151.150;2023-01-16T02:19:35;30.40;99.90
44047;DHT22;29713;-33.888;151.150;2023-01-16T02:22:27;30.50;99.90
44047;DHT22;29713;-33.888;151.150;2023-01-16T02:33:53;30.40;99.90
44047;DHT22;29713;-33.888;151.150;2023-01-16T02:39:21;30.70;99.90
44047;DHT22;29713;-33.888;151.150;2023-01-16T02:45:33;30.70;99.90
44047;DHT22;29713;-33.888;151.150;2023-01-16T02:48:23;30.80;99.90
44047;DHT22;29713;-33.888;151.150;2023-01-16T02:53:52;31.60;99.90
44047;DHT22;29713;-33.888;151.150;2023-01-16T02:56:31;31.80;99.90
44047;DHT22;29713;-33.888;151.150;2023-01-16T02:59:02;31.90;99.90
44047;DHT22;29713;-33.888;151.150;2023-01-16T03:01:32;32.10;99.90
44047;DHT22;29713;-33.888;151.150;2023-01-16T03:06:34;31.90;99.90
44047;DHT22;29713;-33.888;151.150;2023-01-16T03:17:53;31.30;99.90
44047;DHT22;29713;-33.888;151.150;2023-01-16T03:20:32;31.20;99.90
44047;DHT22;29713;-33.888;151.150;2023-01-16T03:23:09;31.20;99.90
44047;DHT22;29713;-33.888;151.150;2023-01-16T03:26:02;31.40;99.90
44047;DHT22;29713;-33.888;151.150;2023-01-16T03:28:52;31.20;99.90
44047;DHT22;29713;-33.888;151.150;2023-01-16T03:34:14;31.40;99.90
44047;DHT22;29713;-33.888;151.150;2023-01-16T03:37:06;31.80;99.90
44047;DHT22;29713;-33.888;151.150;2023-01-16T03:39:47;32.00;99.90
44047;DHT22;29713;-33.888;151.150;2023-01-16T03:42:32;32.00;99.90
44047;DHT22;29713;-33.888;151.150;2023-01-16T03:45:16;31.90;99.90
44047;DHT22;29713;-33.888;151.150;2023-01-16T03:47:51;32.30;99.90
44047;DHT22;29713;-33.888;151.150;2023-01-16T03:50:21;31.90;99.90
44047;DHT22;29713;-33.888;151.150;2023-01-16T03:52:54;31.80;99.90
44047;DHT22;29713;-33.888;151.150;2023-01-16T03:55:41;31.60;99.90
44047;DHT22;29713;-33.888;151.150;2023-01-16T03:58:31;31.50;99.90
44047;DHT22;29713;-33.888;151.150;2023-01-16T04:03:55;32.20;99.90
44047;DHT22;29713;-33.888;151.150;2023-01-16T04:06:51;32.70;99.90
44047;DHT22;29713;-33.888;151.150;2023-01-16T04:09:51;33.30;99.90
44047;DHT22;29713;-33.888;151.150;2023-01-16T04:12:22;33.90;99.90
44047;DHT22;29713;-33.888;151.150;2023-01-16T04:14:58;34.20;99.90
44047;DHT22;29713;-33.888;151.150;2023-01-16T04:17:27;34.60;99.90
44047;DHT22;29713;-33.888;151.150;2023-01-16T04:19:55;34.20;99.90
44047;DHT22;29713;-33.888;151.150;2023-01-16T04:22:28;33.40;99.90
44047;DHT22;29713;-33.888;151.150;2023-01-16T04:25:02;32.50;99.90
44047;DHT22;29713;-33.888;151.150;2023-01-16T04:27:30;32.10;99.90
44047;DHT22;29713;-33.888;151.150;2023-01-16T04:29:57;32.00;99.90
44047;DHT22;29713;-33.888;151.150;2023-01-16T04:32:24;32.10;99.90
44047;DHT22;29713;-33.888;151.150;2023-01-16T04:34:52;32.60;99.90
44047;DHT22;29713;-33.888;151.150;2023-01-16T04:37:19;33.00;99.90
44047;DHT22;29713;-33.888;151.150;2023-01-16T04:39:46;33.20;99.90
44047;DHT22;29713;-33.888;151.150;2023-01-16T04:42:16;33.60;99.90
44047;DHT22;29713;-33.888;151.150;2023-01-16T04:44:44;33.70;99.90
44047;DHT22;29713;-33.888;151.150;2023-01-16T04:47:11;33.90;99.90
44047;DHT22;29713;-33.888;151.150;2023-01-16T04:49:39;34.00;99.90
44047;DHT22;29713;-33.888;151.150;2023-01-16T04:52:06;33.70;99.90
44047;DHT22;29713;-33.888;151.150;2023-01-16T04:54:34;34.10;99.90
44047;DHT22;29713;-33.888;151.150;2023-01-16T04:57:01;34.20;99.90
44047;DHT22;29713;-33.888;151.150;2023-01-16T04:59:28;34.50;99.90
44047;DHT22;29713;-33.888;151.150;2023-01-16T05:01:56;34.70;99.90
44047;DHT22;29713;-33.888;151.150;2023-01-16T05:04:23;34.90;99.90
44047;DHT22;29713;-33.888;151.150;2023-01-16T05:06:51;35.00;99.90
44047;DHT22;29713;-33.888;151.150;2023-01-16T05:09:18;34.90;99.90
44047;DHT22;29713;-33.888;151.150;2023-01-16T05:11:45;34.40;99.90
44047;DHT22;29713;-33.888;151.150;2023-01-16T05:14:13;34.50;99.90
44047;DHT22;29713;-33.888;151.150;2023-01-16T05:16:40;34.60;99.90
44047;DHT22;29713;-33.888;151.150;2023-01-16T05:19:09;34.90;99.90
44047;DHT22;29713;-33.888;151.150;2023-01-16T05:21:36;34.80;99.90
44047;DHT22;29713;-33.888;151.150;2023-01-16T05:24:04;34.60;99.90
44047;DHT22;29713;-33.888;151.150;2023-01-16T05:26:32;34.70;99.90
44047;DHT22;29713;-33.888;151.150;2023-01-16T05:28:59;34.60;99.90
44047;DHT22;29713;-33.888;151.150;2023-01-16T05:31:27;34.60;99.90
44047;DHT22;29713;-33.888;151.150;2023-01-16T05:33:54;34.60;99.90
44047;DHT22;29713;-33.888;151.150;2023-01-16T05:36:21;34.10;99.90
44047;DHT22;29713;-33.888;151.150;2023-01-16T05:38:49;33.20;99.90
44047;DHT22;29713;-33.888;151.150;2023-01-16T05:41:17;32.80;99.90
44047;DHT22;29713;-33.888;151.150;2023-01-16T05:43:44;32.60;99.90
44047;DHT22;29713;-33.888;151.150;2023-01-16T05:46:12;32.40;99.90
44047;DHT22;29713;-33.888;151.150;2023-01-16T05:48:39;32.30;99.90
44047;DHT22;29713;-33.888;151.150;2023-01-16T05:51:07;32.60;99.90
44047;DHT22;29713;-33.888;151.150;2023-01-16T05:53:34;32.70;99.90
44047;DHT22;29713;-33.888;151.150;2023-01-16T05:56:07;32.30;99.90
44047;DHT22;29713;-33.888;151.150;2023-01-16T05:58:35;32.10;99.90
44047;DHT22;29713;-33.888;151.150;2023-01-16T06:01:03;32.20;99.90
44047;DHT22;29713;-33.888;151.150;2023-01-16T06:03:31;32.40;99.90
44047;DHT22;29713;-33.888;151.150;2023-01-16T06:05:58;31.90;99.90
44047;DHT22;29713;-33.888;151.150;2023-01-16T06:08:27;31.60;99.90
44047;DHT22;29713;-33.888;151.150;2023-01-16T06:10:56;31.20;99.90
44047;DHT22;29713;-33.888;151.150;2023-01-16T06:13:23;31.00;99.90
44047;DHT22;29713;-33.888;151.150;2023-01-16T06:15:51;31.20;99.90
44047;DHT22;29713;-33.888;151.150;2023-01-16T06:18:18;31.50;99.90
44047;DHT22;29713;-33.888;151.150;2023-01-16T06:20:45;31.90;99.90
44047;DHT22;29713;-33.888;151.150;2023-01-16T06:23:13;32.30;99.90
44047;DHT22;29713;-33.888;151.150;2023-01-16T06:25:40;32.20;99.90
44047;DHT22;29713;-33.888;151.150;2023-01-16T06:28:08;32.30;99.90
44047;DHT22;29713;-33.888;151.150;2023-01-16T06:30:36;32.10;99.90
44047;DHT22;29713;-33.888;151.150;2023-01-16T06:33:03;32.00;99.90
44047;DHT22;29713;-33.888;151.150;2023-01-16T06:35:30;31.90;99.90
44047;DHT22;29713;-33.888;151.150;2023-01-16T06:37:58;31.90;99.90
44047;DHT22;29713;-33.888;151.150;2023-01-16T06:40:25;32.10;99.90
44047;DHT22;29713;-33.888;151.150;2023-01-16T06:42:52;32.00;99.90
44047;DHT22;29713;-33.888;151.150;2023-01-16T06:45:20;31.90;99.90
44047;DHT22;29713;-33.888;151.150;2023-01-16T06:47:51;31.80;99.90
44047;DHT22;29713;-33.888;151.150;2023-01-16T06:50:19;31.40;99.90
44047;DHT22;29713;-33.888;151.150;2023-01-16T06:52:47;31.20;99.90
44047;DHT22;29713;-33.888;151.150;2023-01-16T06:55:15;30.60;99.90
44047;DHT22;29713;-33.888;151.150;2023-01-16T06:57:42;30.20;99.90
44047;DHT22;29713;-33.888;151.150;2023-01-16T07:00:10;29.80;99.90
44047;DHT22;29713;-33.888;151.150;2023-01-16T07:02:38;29.50;99.90
44047;DHT22;29713;-33.888;151.150;2023-01-16T07:05:07;29.30;99.90
44047;DHT22;29713;-33.888;151.150;2023-01-16T07:07:35;29.10;99.90
44047;DHT22;29713;-33.888;151.150;2023-01-16T07:10:03;28.90;99.90
44047;DHT22;29713;-33.888;151.150;2023-01-16T07:12:31;28.80;99.90
44047;DHT22;29713;-33.888;151.150;2023-01-16T07:14:58;28.60;99.90
44047;DHT22;29713;-33.888;151.150;2023-01-16T07:17:43;28.40;99.90
44047;DHT22;29713;-33.888;151.150;2023-01-16T07:20:29;28.20;99.90
44047;DHT22;29713;-33.888;151.150;2023-01-16T07:23:39;28.10;99.90
44047;DHT22;29713;-33.888;151.150;2023-01-16T07:26:07;28.00;99.90
44047;DHT22;29713;-33.888;151.150;2023-01-16T07:28:35;27.90;99.90
44047;DHT22;29713;-33.888;151.150;2023-01-16T07:31:03;27.70;99.90
44047;DHT22;29713;-33.888;151.150;2023-01-16T07:33:31;27.70;99.90
44047;DHT22;29713;-33.888;151.150;2023-01-16T07:35:58;27.60;99.90
44047;DHT22;29713;-33.888;151.150;2023-01-16T07:38:26;27.60;99.90
44047;DHT22;29713;-33.888;151.150;2023-01-16T07:40:53;27.50;99.90
44047;DHT22;29713;-33.888;151.150;2023-01-16T07:43:21;27.50;99.90
44047;DHT22;29713;-33.888;151.150;2023-01-16T07:45:48;27.40;99.90
44047;DHT22;29713;-33.888;151.150;2023-01-16T07:48:20;27.40;99.90
44047;DHT22;29713;-33.888;151.150;2023-01-16T07:50:58;27.20;99.90
44047;DHT22;29713;-33.888;151.150;2023-01-16T07:53:28;26.90;99.90
44047;DHT22;29713;-33.888;151.150;2023-01-16T07:55:58;26.90;99.90
44047;DHT22;29713;-33.888;151.150;2023-01-16T07:58:27;26.80;99.90
44047;DHT22;29713;-33.888;151.150;2023-01-16T08:00:55;26.70;99.90
44047;DHT22;29713;-33.888;151.150;2023-01-16T08:03:24;26.60;99.90
44047;DHT22;29713;-33.888;151.150;2023-01-16T08:05:56;26.60;99.90
44047;DHT22;29713;-33.888;151.150;2023-01-16T08:08:24;26.60;99.90
44047;DHT22;29713;-33.888;151.150;2023-01-16T08:10:57;26.40;99.90
44047;DHT22;29713;-33.888;151.150;2023-01-16T08:13:27;26.50;99.90
44047;DHT22;29713;-33.888;151.150;2023-01-16T08:16:07;26.50;99.90
44047;DHT22;29713;-33.888;151.150;2023-01-16T08:18:34;26.60;99.90
44047;DHT22;29713;-33.888;151.150;2023-01-16T08:21:01;26.60;99.90
44047;DHT22;29713;-33.888;151.150;2023-01-16T08:23:29;26.60;99.90
44047;DHT22;29713;-33.888;151.150;2023-01-16T08:25:56;26.40;99.90
44047;DHT22;29713;-33.888;151.150;2023-01-16T08:28:27;26.30;99.90
44047;DHT22;29713;-33.888;151.150;2023-01-16T08:30:54;26.30;99.90
44047;DHT22;29713;-33.888;151.150;2023-01-16T08:33:21;26.10;99.90
44047;DHT22;29713;-33.888;151.150;2023-01-16T08:35:49;26.00;99.90
44047;DHT22;29713;-33.888;151.150;2023-01-16T08:38:16;25.80;99.90
44047;DHT22;29713;-33.888;151.150;2023-01-16T08:40:44;25.80;99.90
44047;DHT22;29713;-33.888;151.150;2023-01-16T08:43:11;25.80;99.90
44047;DHT22;29713;-33.888;151.150;2023-01-16T08:45:56;25.80;99.90
44047;DHT22;29713;-33.888;151.150;2023-01-16T08:48:52;25.80;99.90
44047;DHT22;29713;-33.888;151.150;2023-01-16T08:51:38;25.80;99.90
44047;DHT22;29713;-33.888;151.150;2023-01-16T08:54:06;25.60;99.90
44047;DHT22;29713;-33.888;151.150;2023-01-16T08:56:33;25.60;99.90
44047;DHT22;29713;-33.888;151.150;2023-01-16T08:59:01;25.60;99.90
44047;DHT22;29713;-33.888;151.150;2023-01-16T09:01:28;25.60;99.90
44047;DHT22;29713;-33.888;151.150;2023-01-16T09:03:55;25.60;99.90
44047;DHT22;29713;-33.888;151.150;2023-01-16T09:06:23;25.50;99.90
44047;DHT22;29713;-33.888;151.150;2023-01-16T09:08:51;25.60;99.90
44047;DHT22;29713;-33.888;151.150;2023-01-16T09:11:18;25.50;99.90
44047;DHT22;29713;-33.888;151.150;2023-01-16T09:14:04;25.50;99.90
44047;DHT22;29713;-33.888;151.150;2023-01-16T09:16:31;25.50;99.90
44047;DHT22;29713;-33.888;151.150;2023-01-16T09:18:58;25.50;99.90
44047;DHT22;29713;-33.888;151.150;2023-01-16T09:21:26;25.40;99.90
44047;DHT22;29713;-33.888;151.150;2023-01-16T09:23:53;25.40;99.90
44047;DHT22;29713;-33.888;151.150;2023-01-16T09:26:20;25.40;99.90
44047;DHT22;29713;-33.888;151.150;2023-01-16T09:28:48;25.40;99.90
44047;DHT22;29713;-33.888;151.150;2023-01-16T09:31:16;25.40;99.90
44047;DHT22;29713;-33.888;151.150;2023-01-16T09:33:45;25.30;99.90
44047;DHT22;29713;-33.888;151.150;2023-01-16T09:36:15;25.30;99.90
44047;DHT22;29713;-33.888;151.150;2023-01-16T09:38:42;25.30;99.90
44047;DHT22;29713;-33.888;151.150;2023-01-16T09:41:15;25.20;99.90
44047;DHT22;29713;-33.888;151.150;2023-01-16T09:44:06;25.20;99.90
44047;DHT22;29713;-33.888;151.150;2023-01-16T09:46:42;25.10;99.90
44047;DHT22;29713;-33.888;151.150;2023-01-16T09:49:23;25.10;99.90
44047;DHT22;29713;-33.888;151.150;2023-01-16T09:52:05;25.00;99.90
44047;DHT22;29713;-33.888;151.150;2023-01-16T09:55:01;25.00;99.90
44047;DHT22;29713;-33.888;151.150;2023-01-16T09:57:48;25.10;99.90
44047;DHT22;29713;-33.888;151.150;2023-01-16T10:00:35;25.10;99.90
44047;DHT22;29713;-33.888;151.150;2023-01-16T10:03:03;25.10;99.90
44047;DHT22;29713;-33.888;151.150;2023-01-16T10:05:41;25.00;99.90
44047;DHT22;29713;-33.888;151.150;2023-01-16T10:28:04;24.70;99.90
44047;DHT22;29713;-33.888;151.150;2023-01-16T10:30:47;24.70;99.90
44047;DHT22;29713;-33.888;151.150;2023-01-16T10:36:17;24.70;99.90
44047;DHT22;29713;-33.888;151.150;2023-01-16T10:38:49;24.60;99.90
44047;DHT22;29713;-33.888;151.150;2023-01-16T10:41:31;24.60;99.90
44047;DHT22;29713;-33.888;151.150;2023-01-16T10:44:35;24.70;99.90
44047;DHT22;29713;-33.888;151.150;2023-01-16T10:47:28;24.70;99.90
44047;DHT22;29713;-33.888;151.150;2023-01-16T10:50:19;24.70;99.90
44047;DHT22;29713;-33.888;151.150;2023-01-16T10:52:48;24.70;99.90
44047;DHT22;29713;-33.888;151.150;2023-01-16T10:55:17;24.80;99.90
44047;DHT22;29713;-33.888;151.150;2023-01-16T10:57:55;24.80;99.90
44047;DHT22;29713;-33.888;151.150;2023-01-16T11:00:32;24.80;99.90
44047;DHT22;29713;-33.888;151.150;2023-01-16T11:03:19;24.80;99.90
44047;DHT22;29713;-33.888;151.150;2023-01-16T11:05:50;24.80;99.90
44047;DHT22;29713;-33.888;151.150;2023-01-16T11:08:19;24.80;99.90
44047;DHT22;29713;-33.888;151.150;2023-01-16T11:10:50;24.80;99.90
44047;DHT22;29713;-33.888;151.150;2023-01-16T11:13:22;24.80;99.90
44047;DHT22;29713;-33.888;151.150;2023-01-16T11:16:18;24.80;99.90
44047;DHT22;29713;-33.888;151.150;2023-01-16T11:19:40;24.80;99.90
44047;DHT22;29713;-33.888;151.150;2023-01-16T11:22:24;24.80;99.90
44047;DHT22;29713;-33.888;151.150;2023-01-16T11:24:57;24.80;99.90
44047;DHT22;29713;-33.888;151.150;2023-01-16T11:27:34;24.90;99.90
44047;DHT22;29713;-33.888;151.150;2023-01-16T11:30:13;24.90;99.90
44047;DHT22;29713;-33.888;151.150;2023-01-16T11:32:41;24.80;99.90
44047;DHT22;29713;-33.888;151.150;2023-01-16T11:35:16;24.80;99.90
44047;DHT22;29713;-33.888;151.150;2023-01-16T11:37:48;24.70;99.90
44047;DHT22;29713;-33.888;151.150;2023-01-16T11:40:24;24.70;99.90
44047;DHT22;29713;-33.888;151.150;2023-01-16T11:42:58;24.70;99.90
44047;DHT22;29713;-33.888;151.150;2023-01-16T11:45:56;24.60;99.90
44047;DHT22;29713;-33.888;151.150;2023-01-16T11:48:43;24.60;99.90
44047;DHT22;29713;-33.888;151.150;2023-01-16T11:51:19;24.50;99.90
44047;DHT22;29713;-33.888;151.150;2023-01-16T11:53:49;24.50;99.90
44047;DHT22;29713;-33.888;151.150;2023-01-16T11:59:24;24.40;99.90
44047;DHT22;29713;-33.888;151.150;2023-01-16T12:05:34;24.40;99.90
44047;DHT22;29713;-33.888;151.150;2023-01-16T12:08:03;24.40;99.90
44047;DHT22;29713;-33.888;151.150;2023-01-16T12:10:57;24.40;99.90
44047;DHT22;29713;-33.888;151.150;2023-01-16T12:13:47;24.40;99.90
44047;DHT22;29713;-33.888;151.150;2023-01-16T12:16:41;24.40;99.90
44047;DHT22;29713;-33.888;151.150;2023-01-16T12:27:59;24.30;99.90
44047;DHT22;29713;-33.888;151.150;2023-01-16T12:30:51;24.30;99.90
44047;DHT22;29713;-33.888;151.150;2023-01-16T12:45:41;24.30;99.90
44047;DHT22;29713;-33.888;151.150;2023-01-16T12:58:42;24.20;99.90
44047;DHT22;29713;-33.888;151.150;2023-01-16T13:01:19;24.20;99.90
44047;DHT22;29713;-33.888;151.150;2023-01-16T13:06:56;24.30;99.90
44047;DHT22;29713;-33.888;151.150;2023-01-16T13:09:46;24.30;99.90
44047;DHT22;29713;-33.888;151.150;2023-01-16T13:12:25;24.30;99.90
44047;DHT22;29713;-33.888;151.150;2023-01-16T13:15:36;24.30;99.90
44047;DHT22;29713;-33.888;151.150;2023-01-16T13:20:38;24.30;99.90
44047;DHT22;29713;-33.888;151.150;2023-01-16T13:25:54;24.20;99.90
44047;DHT22;29713;-33.888;151.150;2023-01-16T13:28:42;24.20;99.90
44047;DHT22;29713;-33.888;151.150;2023-01-16T13:31:39;24.10;99.90
44047;DHT22;29713;-33.888;151.150;2023-01-16T13:34:17;24.10;99.90
44047;DHT22;29713;-33.888;151.150;2023-01-16T13:42:26;24.10;99.90
44047;DHT22;29713;-33.888;151.150;2023-01-16T13:44:59;24.00;99.90
44047;DHT22;29713;-33.888;151.150;2023-01-16T13:47:46;23.90;99.90
44047;DHT22;29713;-33.888;151.150;2023-01-16T13:50:17;23.80;99.90
44047;DHT22;29713;-33.888;151.150;2023-01-16T13:52:45;23.80;99.90
44047;DHT22;29713;-33.888;151.150;2023-01-16T13:55:41;23.70;99.90
44047;DHT22;29713;-33.888;151.150;2023-01-16T14:00:44;23.60;99.90
44047;DHT22;29713;-33.888;151.150;2023-01-16T14:03:18;23.70;99.90
44047;DHT22;29713;-33.888;151.150;2023-01-16T14:06:15;23.60;99.90
44047;DHT22;29713;-33.888;151.150;2023-01-16T14:08:48;23.60;99.90
44047;DHT22;29713;-33.888;151.150;2023-01-16T14:11:38;23.60;99.90
44047;DHT22;29713;-33.888;151.150;2023-01-16T14:17:17;23.50;99.90
44047;DHT22;29713;-33.888;151.150;2023-01-16T14:22:34;23.50;99.90
44047;DHT22;29713;-33.888;151.150;2023-01-16T14:25:04;23.50;99.90
44047;DHT22;29713;-33.888;151.150;2023-01-16T14:27:38;23.40;99.90
44047;DHT22;29713;-33.888;151.150;2023-01-16T14:30:25;23.40;99.90
44047;DHT22;29713;-33.888;151.150;2023-01-16T14:32:55;23.40;99.90
44047;DHT22;29713;-33.888;151.150;2023-01-16T14:35:30;23.30;99.90
44047;DHT22;29713;-33.888;151.150;2023-01-16T14:38:08;23.30;99.90
44047;DHT22;29713;-33.888;151.150;2023-01-16T14:40:45;23.30;99.90
44047;DHT22;29713;-33.888;151.150;2023-01-16T14:43:32;23.30;99.90
44047;DHT22;29713;-33.888;151.150;2023-01-16T14:52:51;23.20;99.90
44047;DHT22;29713;-33.888;151.150;2023-01-16T15:01:28;23.10;99.90
44047;DHT22;29713;-33.888;151.150;2023-01-16T15:04:15;23.10;99.90
44047;DHT22;29713;-33.888;151.150;2023-01-16T15:06:52;23.00;99.90
44047;DHT22;29713;-33.888;151.150;2023-01-16T15:09:21;23.00;99.90
44047;DHT22;29713;-33.888;151.150;2023-01-16T15:11:57;23.00;99.90
44047;DHT22;29713;-33.888;151.150;2023-01-16T15:14:25;22.90;99.90
44047;DHT22;29713;-33.888;151.150;2023-01-16T15:17:02;22.90;99.90
44047;DHT22;29713;-33.888;151.150;2023-01-16T15:22:47;22.90;99.90
44047;DHT22;29713;-33.888;151.150;2023-01-16T15:28:26;22.80;99.90
44047;DHT22;29713;-33.888;151.150;2023-01-16T15:30:51;22.80;99.90
44047;DHT22;29713;-33.888;151.150;2023-01-16T15:33:30;22.80;99.90
44047;DHT22;29713;-33.888;151.150;2023-01-16T15:36:30;22.80;99.90
44047;DHT22;29713;-33.888;151.150;2023-01-16T15:41:46;22.70;99.90
44047;DHT22;29713;-33.888;151.150;2023-01-16T15:44:33;22.80;99.90
44047;DHT22;29713;-33.888;151.150;2023-01-16T15:50:37;22.80;99.90
44047;DHT22;29713;-33.888;151.150;2023-01-16T15:53:06;22.80;99.90
44047;DHT22;29713;-33.888;151.150;2023-01-16T15:55:41;22.80;99.90
44047;DHT22;29713;-33.888;151.150;2023-01-16T15:58:20;22.90;99.90
44047;DHT22;29713;-33.888;151.150;2023-01-16T16:01:00;22.90;99.90
44047;DHT22;29713;-33.888;151.150;2023-01-16T16:03:44;22.90;99.90
44047;DHT22;29713;-33.888;151.150;2023-01-16T16:06:13;23.00;99.90
44047;DHT22;29713;-33.888;151.150;2023-01-16T16:08:50;23.00;99.90
44047;DHT22;29713;-33.888;151.150;2023-01-16T16:11:27;22.90;99.90
44047;DHT22;29713;-33.888;151.150;2023-01-16T16:14:40;22.90;99.90
44047;DHT22;29713;-33.888;151.150;2023-01-16T16:17:33;23.00;99.90
44047;DHT22;29713;-33.888;151.150;2023-01-16T16:20:37;23.00;99.90
44047;DHT22;29713;-33.888;151.150;2023-01-16T16:25:51;23.00;99.90
44047;DHT22;29713;-33.888;151.150;2023-01-16T16:33:29;23.10;99.90
44047;DHT22;29713;-33.888;151.150;2023-01-16T16:35:58;23.10;99.90
44047;DHT22;29713;-33.888;151.150;2023-01-16T16:38:30;23.10;99.90
44047;DHT22;29713;-33.888;151.150;2023-01-16T16:48:55;23.00;99.90
44047;DHT22;29713;-33.888;151.150;2023-01-16T16:51:28;22.90;99.90
44047;DHT22;29713;-33.888;151.150;2023-01-16T16:54:01;22.90;99.90
44047;DHT22;29713;-33.888;151.150;2023-01-16T16:56:32;22.90;99.90
44047;DHT22;29713;-33.888;151.150;2023-01-16T16:59:01;23.00;99.90
44047;DHT22;29713;-33.888;151.150;2023-01-16T17:01:28;23.00;99.90
44047;DHT22;29713;-33.888;151.150;2023-01-16T17:03:58;23.00;99.90
44047;DHT22;29713;-33.888;151.150;2023-01-16T17:06:30;23.10;99.90
44047;DHT22;29713;-33.888;151.150;2023-01-16T17:08:58;23.10;99.90
44047;DHT22;29713;-33.888;151.150;2023-01-16T17:11:27;23.10;99.90
44047;DHT22;29713;-33.888;151.150;2023-01-16T17:13:54;23.10;99.90
44047;DHT22;29713;-33.888;151.150;2023-01-16T17:16:23;23.10;99.90
44047;DHT22;29713;-33.888;151.150;2023-01-16T17:19:25;23.10;99.90
44047;DHT22;29713;-33.888;151.150;2023-01-16T17:21:57;23.00;99.90
44047;DHT22;29713;-33.888;151.150;2023-01-16T17:24:24;23.00;99.90
44047;DHT22;29713;-33.888;151.150;2023-01-16T17:26:51;22.90;99.90
44047;DHT22;29713;-33.888;151.150;2023-01-16T17:29:18;22.80;99.90
44047;DHT22;29713;-33.888;151.150;2023-01-16T17:31:46;22.70;99.90
44047;DHT22;29713;-33.888;151.150;2023-01-16T17:34:18;22.70;99.90
44047;DHT22;29713;-33.888;151.150;2023-01-16T17:36:46;22.60;99.90
44047;DHT22;29713;-33.888;151.150;2023-01-16T17:39:16;22.60;99.90
44047;DHT22;29713;-33.888;151.150;2023-01-16T17:41:43;22.60;99.90
44047;DHT22;29713;-33.888;151.150;2023-01-16T17:44:22;22.60;99.90
44047;DHT22;29713;-33.888;151.150;2023-01-16T17:47:09;22.60;99.90
44047;DHT22;29713;-33.888;151.150;2023-01-16T17:49:36;22.50;99.90
44047;DHT22;29713;-33.888;151.150;2023-01-16T17:52:22;22.50;99.90
44047;DHT22;29713;-33.888;151.150;2023-01-16T17:54:49;22.40;99.90
44047;DHT22;29713;-33.888;151.150;2023-01-16T17:57:35;22.40;99.90
44047;DHT22;29713;-33.888;151.150;2023-01-16T18:00:03;22.30;99.90
44047;DHT22;29713;-33.888;151.150;2023-01-16T18:02:31;22.30;99.90
44047;DHT22;29713;-33.888;151.150;2023-01-16T18:04:58;22.30;99.90
44047;DHT22;29713;-33.888;151.150;2023-01-16T18:07:25;22.30;99.90